createdAt,value
2022-10-29T00:00:23.359Z,11.30
2022-10-29T00:02:51.819Z,11.90
2022-10-29T00:05:20.242Z,11.90
2022-10-29T00:07:48.601Z,11.80
2022-10-29T00:10:16.993Z,11.20
2022-10-29T00:12:45.067Z,11.00
2022-10-29T00:15:14.718Z,11.00
2022-10-29T00:17:43.110Z,10.87
2022-10-29T00:20:11.742Z,11.43
2022-10-29T00:22:44.384Z,11.40
2022-10-29T00:25:12.770Z,10.90
2022-10-29T00:27:40.841Z,10.70
2022-10-29T00:30:09.856Z,12.17
2022-10-29T00:32:39.586Z,11.53
2022-10-29T00:35:07.985Z,11.40
2022-10-29T00:37:36.421Z,11.47
2022-10-29T00:40:04.974Z,10.70
2022-10-29T00:42:33.035Z,11.90
2022-10-29T00:45:01.097Z,10.83
2022-10-29T00:47:29.685Z,11.37
2022-10-29T00:50:00.158Z,11.30
2022-10-29T00:52:28.788Z,11.00
2022-10-29T00:54:57.178Z,10.90
2022-10-29T00:57:28.170Z,11.37
2022-10-29T00:59:56.578Z,10.87
2022-10-29T01:02:25.138Z,11.93
2022-10-29T01:04:53.898Z,11.33
2022-10-29T01:07:23.520Z,11.20
2022-10-29T01:09:51.614Z,11.23
2022-10-29T01:12:30.666Z,10.33
2022-10-29T01:15:05.357Z,11.20
2022-10-29T01:17:35.170Z,11.03
2022-10-29T01:20:10.223Z,10.47
2022-10-29T01:22:41.186Z,10.17
2022-10-29T01:25:20.272Z,11.13
2022-10-29T01:28:09.970Z,10.17
2022-10-29T01:31:02.448Z,10.20
2022-10-29T01:33:35.070Z,10.00
2022-10-29T01:36:05.303Z,10.50
2022-10-29T01:38:36.362Z,10.67
2022-10-29T01:41:06.611Z,10.60
2022-10-29T01:43:36.523Z,10.17
2022-10-29T01:46:07.570Z,10.27
2022-10-29T01:48:38.475Z,10.00
2022-10-29T01:51:08.842Z,10.40
2022-10-29T01:53:37.629Z,8.77
2022-10-29T01:56:05.912Z,9.90
2022-10-29T01:58:34.026Z,9.30
2022-10-29T02:01:05.006Z,10.50
2022-10-29T02:03:39.023Z,9.33
2022-10-29T02:06:11.676Z,10.10
2022-10-29T02:08:46.689Z,9.70
2022-10-29T02:11:17.076Z,9.57
2022-10-29T02:13:47.744Z,10.70
2022-10-29T02:16:16.128Z,10.67
2022-10-29T02:18:46.096Z,9.73
2022-10-29T02:21:16.626Z,9.50
2022-10-29T02:23:45.059Z,8.70
2022-10-29T02:26:13.616Z,10.03
2022-10-29T02:28:41.683Z,8.60
2022-10-29T02:31:10.065Z,8.63
2022-10-29T02:33:38.126Z,9.00
2022-10-29T02:36:08.788Z,8.90
2022-10-29T02:38:36.828Z,8.07
2022-10-29T02:41:05.270Z,8.93
2022-10-29T02:43:33.322Z,8.30
2022-10-29T02:46:14.779Z,8.90
2022-10-29T02:48:42.976Z,9.00
2022-10-29T02:51:12.478Z,7.70
2022-10-29T02:53:40.522Z,7.47
2022-10-29T02:56:08.987Z,7.30
2022-10-29T02:58:37.407Z,7.57
2022-10-29T03:01:06.999Z,6.37
2022-10-29T03:03:35.400Z,6.90
2022-10-29T03:06:03.488Z,7.60
2022-10-29T03:08:32.941Z,7.37
2022-10-29T03:11:01.358Z,8.00
2022-10-29T03:13:29.475Z,7.43
2022-10-29T03:15:57.891Z,7.60
2022-10-29T03:18:26.255Z,6.50
2022-10-29T03:20:54.618Z,6.80
2022-10-29T03:23:23.281Z,7.20
2022-10-29T03:25:55.820Z,8.27
2022-10-29T03:28:24.947Z,7.70
2022-10-29T03:30:53.006Z,7.13
2022-10-29T03:33:21.380Z,8.50
2022-10-29T03:35:49.775Z,8.07
2022-10-29T03:38:18.161Z,7.77
2022-10-29T03:40:46.243Z,7.37
2022-10-29T03:43:15.706Z,8.70
2022-10-29T03:45:43.772Z,7.83
2022-10-29T03:48:11.833Z,8.60
2022-10-29T03:50:40.210Z,7.77
2022-10-29T03:53:08.622Z,8.10
2022-10-29T03:55:36.709Z,8.00
2022-10-29T03:58:08.234Z,7.83
2022-10-29T04:00:37.664Z,7.70
2022-10-29T04:03:05.863Z,7.83
2022-10-29T04:05:34.259Z,8.43
2022-10-29T04:08:02.663Z,7.80
2022-10-29T04:10:31.357Z,8.10
2022-10-29T04:12:59.716Z,8.03
2022-10-29T04:15:28.088Z,7.20
2022-10-29T04:17:57.875Z,7.73
2022-10-29T04:20:43.374Z,7.87
2022-10-29T04:26:48.035Z,8.60
2022-10-29T04:28:28.941Z,8.13
2022-10-29T04:28:51.752Z,8.50
2022-10-29T04:31:20.003Z,7.67
2022-10-29T04:33:49.468Z,7.37
2022-10-29T04:36:20.253Z,6.40
2022-10-29T04:38:48.629Z,7.43
2022-10-29T04:41:16.690Z,7.40
2022-10-29T04:43:44.753Z,7.27
2022-10-29T04:46:13.008Z,7.60
2022-10-29T04:48:44.655Z,7.63
2022-10-29T04:51:20.029Z,8.63
2022-10-29T04:53:48.105Z,7.30
2022-10-29T04:56:16.159Z,6.97
2022-10-29T04:58:44.209Z,8.50
2022-10-29T05:01:12.738Z,6.97
2022-10-29T05:03:41.320Z,7.60
2022-10-29T05:06:09.749Z,7.63
2022-10-29T05:08:39.227Z,7.00
2022-10-29T05:11:07.370Z,7.03
2022-10-29T05:13:35.492Z,7.03
2022-10-29T05:16:03.565Z,6.97
2022-10-29T05:18:31.939Z,7.50
2022-10-29T05:21:00.310Z,7.90
2022-10-29T05:23:28.693Z,7.00
2022-10-29T05:25:58.140Z,7.03
2022-10-29T05:28:26.219Z,7.60
2022-10-29T05:30:54.882Z,6.97
2022-10-29T05:33:24.161Z,6.50
2022-10-29T05:35:52.655Z,7.37
2022-10-29T05:38:21.030Z,6.83
2022-10-29T05:40:49.385Z,7.30
2022-10-29T05:43:19.149Z,7.23
2022-10-29T05:45:47.516Z,7.10
2022-10-29T05:48:15.899Z,7.40
2022-10-29T05:50:43.958Z,6.33
2022-10-29T05:53:12.564Z,7.00
2022-10-29T05:55:44.651Z,7.07
2022-10-29T05:58:13.918Z,7.70
2022-10-29T06:00:44.036Z,7.43
2022-10-29T06:03:13.928Z,6.87
2022-10-29T06:05:42.405Z,7.30
2022-10-29T06:08:10.493Z,7.00
2022-10-29T06:10:38.863Z,7.10
2022-10-29T06:13:11.395Z,6.83
2022-10-29T06:15:39.760Z,7.17
2022-10-29T06:18:09.607Z,6.87
2022-10-29T06:20:37.759Z,6.90
2022-10-29T06:23:06.165Z,6.10
2022-10-29T06:25:34.235Z,6.80
2022-10-29T06:28:02.844Z,6.10
2022-10-29T06:30:31.007Z,6.80
2022-10-29T06:32:59.515Z,7.20
2022-10-29T06:35:29.171Z,6.23
2022-10-29T06:37:57.989Z,6.73
2022-10-29T06:40:26.754Z,6.57
2022-10-29T06:43:05.891Z,6.70
2022-10-29T06:45:34.342Z,6.60
2022-10-29T06:48:02.449Z,6.30
2022-10-29T06:50:31.914Z,7.10
2022-10-29T06:53:00.695Z,6.90
2022-10-29T06:55:29.180Z,6.90
2022-10-29T06:57:58.460Z,6.90
2022-10-29T07:00:26.625Z,6.87
2022-10-29T07:02:55.296Z,6.13
2022-10-29T07:05:23.605Z,5.90
2022-10-29T07:07:55.862Z,6.60
2022-10-29T07:10:27.168Z,5.70
2022-10-29T07:12:55.296Z,6.03
2022-10-29T07:15:27.320Z,6.70
2022-10-29T07:17:57.576Z,6.60
2022-10-29T07:20:26.170Z,6.20
2022-10-29T07:22:57.655Z,6.50
2022-10-29T07:25:26.110Z,6.33
2022-10-29T07:27:57.003Z,6.97
2022-10-29T07:30:25.655Z,6.37
2022-10-29T07:32:53.734Z,6.63
2022-10-29T07:35:22.118Z,5.80
2022-10-29T07:37:50.527Z,6.17
2022-10-29T07:40:19.964Z,6.70
2022-10-29T07:42:48.327Z,6.73
2022-10-29T07:45:16.588Z,6.67
2022-10-29T07:47:44.658Z,6.00
2022-10-29T07:50:12.837Z,6.40
2022-10-29T07:52:41.209Z,6.33
2022-10-29T07:55:10.106Z,6.37
2022-10-29T07:57:39.555Z,6.17
2022-10-29T08:00:08.941Z,6.90
2022-10-29T08:02:37.325Z,6.30
2022-10-29T08:05:05.900Z,7.30
2022-10-29T08:07:34.277Z,6.53
2022-10-29T08:10:02.354Z,6.80
2022-10-29T08:12:30.756Z,6.50
2022-10-29T08:15:00.206Z,7.20
2022-10-29T08:17:30.628Z,6.30
2022-10-29T08:19:58.997Z,6.17
2022-10-29T08:22:27.386Z,7.37
2022-10-29T08:24:55.791Z,5.80
2022-10-29T08:27:24.175Z,6.53
2022-10-29T08:29:52.263Z,6.70
2022-10-29T08:32:21.713Z,7.27
2022-10-29T08:34:50.089Z,6.70
2022-10-29T08:37:18.469Z,6.57
2022-10-29T08:39:46.846Z,6.20
2022-10-29T08:42:21.324Z,6.60
2022-10-29T08:45:02.972Z,7.17
2022-10-29T08:47:32.567Z,6.33
2022-10-29T08:50:04.275Z,6.30
2022-10-29T08:52:33.121Z,7.10
2022-10-29T08:55:06.154Z,6.10
2022-10-29T08:57:35.264Z,6.57
2022-10-29T09:00:05.486Z,6.90
2022-10-29T09:02:35.015Z,6.37
2022-10-29T09:05:03.098Z,6.67
2022-10-29T09:07:40.081Z,6.30
2022-10-29T09:10:11.777Z,6.27
2022-10-29T09:12:51.837Z,6.10
2022-10-29T09:15:27.949Z,6.70
2022-10-29T09:18:08.058Z,6.53
2022-10-29T09:20:41.738Z,6.30
2022-10-29T09:23:12.285Z,6.67
2022-10-29T09:25:41.220Z,5.70
2022-10-29T09:28:17.810Z,7.27
2022-10-29T09:30:50.799Z,6.37
2022-10-29T09:33:21.365Z,7.00
2022-10-29T09:35:50.507Z,6.00
2022-10-29T09:38:19.665Z,6.20
2022-10-29T09:40:47.770Z,6.70
2022-10-29T09:43:22.976Z,5.50
2022-10-29T09:45:54.161Z,6.70
2022-10-29T09:48:25.224Z,6.57
2022-10-29T09:50:58.973Z,6.30
2022-10-29T09:53:27.340Z,6.90
2022-10-29T09:55:58.317Z,6.27
2022-10-29T09:58:27.855Z,6.43
2022-10-29T10:00:56.557Z,5.70
2022-10-29T10:03:28.268Z,6.33
2022-10-29T10:06:01.339Z,6.33
2022-10-29T10:08:32.979Z,5.97
2022-10-29T10:11:01.771Z,6.40
2022-10-29T10:13:31.177Z,6.10
2022-10-29T10:15:59.800Z,5.63
2022-10-29T10:18:39.846Z,6.30
2022-10-29T10:21:08.734Z,6.50
2022-10-29T10:23:44.775Z,6.53
2022-10-29T10:26:33.132Z,6.27
2022-10-29T10:29:22.655Z,5.40
2022-10-29T10:31:51.228Z,6.37
2022-10-29T10:34:21.514Z,6.10
2022-10-29T10:36:52.338Z,5.90
2022-10-29T10:39:28.470Z,5.77
2022-10-29T10:41:56.939Z,6.63
2022-10-29T10:44:25.311Z,7.00
2022-10-29T10:46:54.426Z,6.07
2022-10-29T10:49:29.601Z,5.80
2022-10-29T10:51:57.723Z,6.03
2022-10-29T10:54:29.080Z,5.43
2022-10-29T10:57:01.508Z,5.70
2022-10-29T10:59:46.049Z,5.97
2022-10-29T11:02:20.611Z,5.73
2022-10-29T11:04:51.217Z,5.93
2022-10-29T11:07:19.592Z,5.47
2022-10-29T11:09:48.247Z,6.50
2022-10-29T11:12:19.775Z,6.60
2022-10-29T11:14:49.555Z,5.50
2022-10-29T11:17:26.212Z,6.03
2022-10-29T11:19:57.020Z,5.70
2022-10-29T11:22:27.481Z,5.70
2022-10-29T11:24:58.618Z,6.30
2022-10-29T11:27:39.292Z,5.40
2022-10-29T11:30:08.447Z,4.90
2022-10-29T11:32:40.895Z,5.90
2022-10-29T11:35:13.727Z,6.10
2022-10-29T11:37:45.086Z,6.10
2022-10-29T11:40:14.781Z,5.47
2022-10-29T11:42:42.912Z,5.80
2022-10-29T11:45:13.372Z,5.90
2022-10-29T11:47:50.981Z,5.70
2022-10-29T11:50:25.024Z,5.37
2022-10-29T11:52:56.148Z,5.97
2022-10-29T11:55:31.649Z,5.80
2022-10-29T11:58:00.704Z,5.67
2022-10-29T12:00:32.330Z,5.67
2022-10-29T12:03:21.722Z,5.27
2022-10-29T12:05:57.339Z,5.33
2022-10-29T12:08:35.642Z,5.43
2022-10-29T12:11:06.200Z,5.73
2022-10-29T12:13:43.927Z,5.50
2022-10-29T12:16:20.754Z,5.30
2022-10-29T12:18:51.665Z,5.70
2022-10-29T12:21:26.098Z,5.67
2022-10-29T12:23:59.150Z,5.10
2022-10-29T12:26:29.735Z,4.97
2022-10-29T12:29:00.107Z,4.83
2022-10-29T12:31:30.638Z,4.90
2022-10-29T12:34:03.011Z,5.27
2022-10-29T12:36:37.872Z,5.50
2022-10-29T12:39:06.761Z,4.83
2022-10-29T12:41:37.256Z,5.40
2022-10-29T12:44:09.390Z,5.10
2022-10-29T12:46:39.329Z,5.10
2022-10-29T12:49:09.544Z,4.83
2022-10-29T12:51:42.568Z,6.17
2022-10-29T12:54:31.158Z,4.83
2022-10-29T12:57:05.404Z,5.20
2022-10-29T12:59:36.970Z,5.40
2022-10-29T13:02:27.701Z,4.50
2022-10-29T13:05:42.258Z,4.80
2022-10-29T13:08:28.181Z,5.03
2022-10-29T13:10:56.811Z,5.43
2022-10-29T13:13:39.766Z,5.27
2022-10-29T13:16:08.845Z,5.00
2022-10-29T13:18:46.100Z,4.47
2022-10-29T13:21:14.467Z,4.90
2022-10-29T13:23:43.981Z,4.90
2022-10-29T13:26:12.053Z,4.60
2022-10-29T13:28:50.705Z,4.90
2022-10-29T13:31:49.709Z,4.90
2022-10-29T13:34:57.921Z,5.67
2022-10-29T13:37:50.003Z,5.43
2022-10-29T13:41:04.281Z,4.63
2022-10-29T13:43:33.880Z,4.40
2022-10-29T13:46:07.828Z,4.60
2022-10-29T13:48:36.301Z,4.70
2022-10-29T13:51:06.383Z,4.93
2022-10-29T13:53:38.812Z,4.70
2022-10-29T13:56:10.221Z,4.87
2022-10-29T13:58:40.276Z,4.70
2022-10-29T14:01:09.876Z,4.47
2022-10-29T14:03:42.486Z,4.90
2022-10-29T14:06:10.906Z,4.50
2022-10-29T14:08:41.600Z,4.97
2022-10-29T14:11:13.650Z,5.30
2022-10-29T14:13:44.888Z,4.80
2022-10-29T14:16:15.377Z,5.23
2022-10-29T14:18:43.841Z,5.37
2022-10-29T14:21:16.750Z,4.80
2022-10-29T14:23:56.368Z,4.87
2022-10-29T14:26:25.114Z,4.83
2022-10-29T14:28:54.585Z,5.03
2022-10-29T14:31:23.378Z,5.17
2022-10-29T14:33:55.918Z,4.70
2022-10-29T14:36:27.761Z,4.73
2022-10-29T14:38:57.098Z,4.60
2022-10-29T14:41:25.562Z,4.50
2022-10-29T14:44:00.129Z,4.17
2022-10-29T14:46:28.652Z,5.03
2022-10-29T14:48:58.707Z,4.80
2022-10-29T14:51:26.786Z,4.90
2022-10-29T14:53:57.751Z,4.60
2022-10-29T14:56:29.574Z,4.60
2022-10-29T14:58:59.024Z,5.03
2022-10-29T15:01:27.534Z,5.00
2022-10-29T15:03:58.991Z,4.60
2022-10-29T15:06:27.816Z,4.33
2022-10-29T15:08:56.771Z,4.80
2022-10-29T15:11:48.805Z,5.00
2022-10-29T15:14:32.970Z,4.00
2022-10-29T15:17:01.051Z,5.13
2022-10-29T15:19:29.117Z,4.80
2022-10-29T15:21:57.180Z,4.57
2022-10-29T15:24:25.572Z,3.80
2022-10-29T15:26:54.636Z,4.10
2022-10-29T15:29:27.856Z,4.50
2022-10-29T15:32:00.213Z,4.10
2022-10-29T15:34:29.803Z,4.57
2022-10-29T15:37:00.182Z,4.77
2022-10-29T15:39:29.300Z,4.30
2022-10-29T15:41:59.255Z,4.33
2022-10-29T15:44:38.149Z,4.77
2022-10-29T15:47:27.333Z,4.73
2022-10-29T15:49:55.760Z,5.00
2022-10-29T15:52:32.854Z,4.93
2022-10-29T15:55:01.207Z,5.57
2022-10-29T15:57:31.527Z,4.63
2022-10-29T16:02:38.144Z,4.80
2022-10-29T16:05:12.529Z,4.67
2022-10-29T16:07:40.953Z,4.10
2022-10-29T16:10:10.710Z,4.47
2022-10-29T16:12:38.821Z,4.47
2022-10-29T16:15:10.037Z,5.17
2022-10-29T16:17:39.663Z,4.73
2022-10-29T16:20:09.092Z,4.23
2022-10-29T16:22:37.271Z,4.80
2022-10-29T16:25:06.008Z,4.27
2022-10-29T16:27:34.124Z,5.17
2022-10-29T16:30:02.181Z,3.80
2022-10-29T16:32:30.590Z,5.10
2022-10-29T16:35:00.042Z,5.00
2022-10-29T16:37:28.442Z,4.27
2022-10-29T16:39:56.811Z,4.83
2022-10-29T16:42:35.519Z,4.40
2022-10-29T16:45:03.611Z,4.27
2022-10-29T16:47:31.712Z,4.20
2022-10-29T16:50:01.172Z,4.90
2022-10-29T16:52:29.948Z,4.07
2022-10-29T16:54:58.380Z,4.63
2022-10-29T16:57:26.761Z,4.63
2022-10-29T16:59:54.850Z,4.27
2022-10-29T17:02:26.988Z,4.50
2022-10-29T17:04:55.061Z,4.63
2022-10-29T17:07:24.553Z,4.13
2022-10-29T17:09:52.907Z,4.80
2022-10-29T17:12:21.414Z,5.03
2022-10-29T17:14:49.772Z,4.50
2022-10-29T17:17:18.147Z,4.37
2022-10-29T17:19:46.522Z,4.10
2022-10-29T17:22:16.247Z,4.23
2022-10-29T17:24:45.690Z,4.30
2022-10-29T17:27:14.103Z,4.80
2022-10-29T17:29:42.211Z,4.77
2022-10-29T17:32:10.318Z,4.27
2022-10-29T17:34:38.705Z,4.23
2022-10-29T17:37:07.512Z,4.60
2022-10-29T17:39:35.614Z,4.30
2022-10-29T17:42:05.374Z,4.37
2022-10-29T17:44:33.995Z,4.80
2022-10-29T17:47:02.429Z,4.40
2022-10-29T17:49:30.781Z,4.27
2022-10-29T17:51:58.833Z,4.53
2022-10-29T17:54:27.956Z,4.37
2022-10-29T17:56:56.328Z,4.23
2022-10-29T17:59:25.823Z,4.77
2022-10-29T18:01:54.331Z,4.03
2022-10-29T18:04:22.781Z,4.40
2022-10-29T18:06:51.137Z,4.03
2022-10-29T18:09:21.231Z,3.90
2022-10-29T18:11:50.297Z,4.20
2022-10-29T18:14:18.747Z,4.17
2022-10-29T18:16:48.198Z,4.50
2022-10-29T18:19:16.286Z,4.30
2022-10-29T18:21:44.374Z,4.23
2022-10-29T18:24:12.947Z,3.90
2022-10-29T18:26:44.967Z,4.20
2022-10-29T18:29:13.460Z,5.17
2022-10-29T18:31:45.012Z,4.73
2022-10-29T18:34:15.288Z,3.43
2022-10-29T18:36:43.819Z,4.90
2022-10-29T18:39:12.200Z,4.47
2022-10-29T18:41:40.695Z,4.10
2022-10-29T18:44:09.077Z,4.30
2022-10-29T18:46:37.137Z,3.90
2022-10-29T18:49:05.539Z,4.63
2022-10-29T18:51:35.006Z,4.93
2022-10-29T18:54:03.126Z,4.50
2022-10-29T18:56:31.364Z,4.60
2022-10-29T18:58:59.823Z,4.33
2022-10-29T19:01:30.388Z,4.20
2022-10-29T19:03:59.393Z,3.77
2022-10-29T19:06:28.695Z,4.03
2022-10-29T19:08:58.167Z,4.23
2022-10-29T19:11:26.709Z,4.03
2022-10-29T19:13:55.179Z,4.70
2022-10-29T19:16:23.388Z,4.27
2022-10-29T19:18:55.366Z,4.30
2022-10-29T19:21:23.493Z,4.27
2022-10-29T19:23:54.915Z,3.97
2022-10-29T19:26:24.862Z,4.43
2022-10-29T19:28:57.120Z,3.93
2022-10-29T19:31:26.400Z,4.10
2022-10-29T19:33:55.832Z,4.40
2022-10-29T19:36:27.376Z,3.90
2022-10-29T19:38:55.759Z,3.73
2022-10-29T19:41:25.214Z,4.37
2022-10-29T19:43:53.291Z,4.20
2022-10-29T19:46:24.049Z,4.47
2022-10-29T19:48:52.469Z,4.43
2022-10-29T19:51:20.912Z,4.03
2022-10-29T19:53:51.373Z,4.20
2022-10-29T19:56:19.576Z,3.80
2022-10-29T19:58:49.105Z,4.03
2022-10-29T20:01:18.136Z,3.90
2022-10-29T20:03:46.716Z,3.90
2022-10-29T20:06:14.884Z,3.73
2022-10-29T20:08:43.005Z,4.20
2022-10-29T20:11:11.076Z,3.90
2022-10-29T20:13:40.105Z,4.40
2022-10-29T20:16:10.521Z,4.37
2022-10-29T20:18:39.233Z,4.90
2022-10-29T20:21:07.978Z,3.73
2022-10-29T20:23:36.245Z,4.03
2022-10-29T20:26:04.609Z,4.70
2022-10-29T20:28:32.689Z,3.60
2022-10-29T20:31:23.501Z,3.80
2022-10-29T20:33:51.587Z,4.23
2022-10-29T20:36:20.024Z,4.07
2022-10-29T20:38:49.788Z,3.83
2022-10-29T20:41:18.196Z,4.60
2022-10-29T20:43:46.283Z,4.17
2022-10-29T20:46:15.736Z,4.00
2022-10-29T20:48:44.128Z,4.27
2022-10-29T20:51:13.542Z,3.37
2022-10-29T20:53:41.672Z,3.93
2022-10-29T20:56:13.188Z,4.30
2022-10-29T20:58:44.548Z,3.97
2022-10-29T21:01:13.505Z,4.10
2022-10-29T21:03:43.035Z,3.97
2022-10-29T21:06:17.075Z,3.93
2022-10-29T21:08:45.571Z,3.83
2022-10-29T21:11:14.136Z,4.20
2022-10-29T21:13:42.498Z,3.67
2022-10-29T21:16:16.578Z,3.57
2022-10-29T21:18:46.832Z,4.30
2022-10-29T21:21:15.278Z,3.53
2022-10-29T21:23:43.671Z,3.93
2022-10-29T21:26:13.044Z,4.40
2022-10-29T21:28:41.123Z,4.37
2022-10-29T21:31:09.221Z,4.03
2022-10-29T21:33:37.594Z,4.30
2022-10-29T21:36:07.298Z,4.37
2022-10-29T21:38:35.393Z,4.37
2022-10-29T21:41:03.475Z,4.20
2022-10-29T21:43:31.853Z,4.20
2022-10-29T21:45:59.955Z,3.93
2022-10-29T21:48:28.441Z,4.00
2022-10-29T21:51:07.551Z,4.20
2022-10-29T21:53:35.661Z,3.97
2022-10-29T21:56:05.283Z,4.63
2022-10-29T21:58:33.370Z,3.67
2022-10-29T22:01:05.285Z,4.10
2022-10-29T22:03:33.967Z,3.80
2022-10-29T22:06:08.108Z,3.53
2022-10-29T22:08:37.635Z,3.90
2022-10-29T22:11:05.833Z,4.53
2022-10-29T22:13:34.461Z,4.47
2022-10-29T22:16:02.884Z,3.80
2022-10-29T22:18:30.992Z,4.43
2022-10-29T22:21:11.739Z,4.03
2022-10-29T22:23:43.150Z,4.30
2022-10-29T22:26:11.552Z,4.33
2022-10-29T22:28:39.611Z,3.70
2022-10-29T22:31:07.790Z,4.07
2022-10-29T22:33:36.025Z,3.43
2022-10-29T22:36:10.785Z,3.77
2022-10-29T22:38:38.880Z,4.03
2022-10-29T22:41:07.829Z,4.10
2022-10-29T22:43:36.296Z,3.70
2022-10-29T22:46:04.489Z,3.87
2022-10-29T22:48:32.586Z,3.63
2022-10-29T22:51:01.725Z,4.53
2022-10-29T22:53:31.217Z,3.80
2022-10-29T22:55:59.269Z,3.77
2022-10-29T22:58:27.650Z,3.50
2022-10-29T23:01:05.663Z,3.80
2022-10-29T23:03:34.184Z,3.80
2022-10-29T23:06:03.048Z,3.97
2022-10-29T23:08:32.515Z,4.00
2022-10-29T23:11:04.782Z,3.80
2022-10-29T23:13:32.903Z,3.90
2022-10-29T23:16:00.986Z,4.17
2022-10-29T23:18:29.374Z,3.87
2022-10-29T23:21:01.383Z,3.50
2022-10-29T23:23:29.836Z,3.70
2022-10-29T23:26:01.737Z,3.93
2022-10-29T23:28:29.910Z,3.70
2022-10-29T23:30:58.323Z,3.90
2022-10-29T23:33:26.496Z,3.77
2022-10-29T23:35:54.869Z,3.50
2022-10-29T23:38:23.224Z,3.47
2022-10-29T23:40:51.570Z,3.93
2022-10-29T23:43:21.003Z,3.67
2022-10-29T23:45:49.395Z,4.30
2022-10-29T23:48:17.756Z,3.63
2022-10-29T23:50:46.150Z,3.77
2022-10-29T23:53:14.210Z,4.20
2022-10-29T23:55:43.660Z,3.80
2022-10-29T23:58:12.022Z,3.50
